Time;durP1;ratioP1;P1;durP2;ratioP2;P2;SDS_P1;SDS_P2;PMS_P1;PMS_P2;Temp;Humidity;BMP_temperature;BMP_pressure;BME280_temperature;BME280_humidity;BME280_pressure;Samples;Min_cycle;Max_cycle;Signal;HPM_P1;HPM_P2
2023/07/27 00:02:19;;;;;;;37.08;35.15;;;;;;;;;;5076730;28;20044;-70
2023/07/27 00:04:44;;;;;;;38.13;36.13;;;;;;;;;;5075414;28;20036;-71
2023/07/27 00:07:09;;;;;;;37.53;35.60;;;;;;;;;;5074909;28;20039;-72
2023/07/27 00:09:35;;;;;;;33.70;31.85;;;;;;;;;;5080065;28;20044;-72
2023/07/27 00:12:00;;;;;;;34.17;32.38;;;;;;;;;;5079278;28;20028;-72
2023/07/27 00:14:25;;;;;;;37.08;35.15;;;;;;;;;;5080689;28;20446;-67
2023/07/27 00:16:51;;;;;;;26.42;24.95;;;;;;;;;;5077983;28;20035;-67
2023/07/27 00:19:16;;;;;;;33.20;31.50;;;;;;;;;;5079561;28;20043;-71
2023/07/27 00:21:41;;;;;;;28.77;27.25;;;;;;;;;;5075220;28;20419;-67
2023/07/27 00:24:07;;;;;;;29.52;27.75;;;;;;;;;;5079875;28;20078;-66
2023/07/27 00:26:35;;;;;;;24.45;23.15;;;;;;;;;;5079089;28;20060;-67
2023/07/27 00:29:00;;;;;;;28.85;27.27;;;;;;;;;;5077919;28;20412;-70
2023/07/27 00:31:26;;;;;;;24.95;23.48;;;;;;;;;;5080132;28;20089;-66
2023/07/27 00:33:51;;;;;;;24.45;23.15;;;;;;;;;;5079897;28;20097;-67
2023/07/27 00:36:16;;;;;;;28.23;26.73;;;;;;;;;;5078023;28;20035;-71
2023/07/27 00:38:42;;;;;;;34.58;32.75;;;;;;;;;;5077229;28;20069;-71
2023/07/27 00:41:08;;;;;;;32.55;30.75;;;;;;;;;;5083324;28;20081;-71
2023/07/27 00:43:33;;;;;;;35.30;33.40;;;;;;;;;;5081639;28;20644;-71
2023/07/27 00:45:59;;;;;;;37.42;35.47;;;;;;;;;;5076732;28;20067;-71
2023/07/27 00:48:24;;;;;;;31.00;29.35;;;;;;;;;;5078863;28;20462;-66
2023/07/27 00:50:51;;;;;;;25.48;24.13;;;;;;;;;;5077985;28;20037;-66
2023/07/27 00:53:16;;;;;;;29.10;27.50;;;;;;;;;;5079219;28;20081;-66
2023/07/27 00:55:43;;;;;;;24.88;23.48;;;;;;;;;;5077614;28;20044;-66
2023/07/27 00:58:09;;;;;;;23.92;22.63;;;;;;;;;;5079673;28;20128;-66
2023/07/27 01:00:35;;;;;;;24.40;22.77;;;;;;;;;;5076157;28;20113;-69
2023/07/27 01:03:02;;;;;;;23.35;22.02;;;;;;;;;;5072463;28;20039;-66
2023/07/27 01:05:28;;;;;;;27.95;26.50;;;;;;;;;;5061441;28;20036;-71
2023/07/27 01:07:53;;;;;;;24.85;23.48;;;;;;;;;;5077044;28;20039;-69
2023/07/27 01:10:25;;;;;;;21.55;20.33;;;;;;;;;;5079518;28;20050;-71
2023/07/27 01:13:03;;;;;;;25.60;24.17;;;;;;;;;;5079904;28;20079;-71
2023/07/27 01:15:32;;;;;;;32.40;30.65;;;;;;;;;;5078267;28;20390;-71
2023/07/27 01:18:13;;;;;;;24.83;23.48;;;;;;;;;;5076871;28;20045;-71
2023/07/27 01:21:15;;;;;;;25.05;23.67;;;;;;;;;;5074911;28;20040;-70
2023/07/27 01:24:09;;;;;;;24.60;23.25;;;;;;;;;;5077685;28;20728;-70
2023/07/27 01:27:04;;;;;;;27.92;26.45;;;;;;;;;;5076846;28;20044;-71
2023/07/27 01:30:07;;;;;;;27.95;26.45;;;;;;;;;;5078270;28;20642;-71
2023/07/27 01:32:35;;;;;;;26.73;25.33;;;;;;;;;;5083472;28;20044;-71
2023/07/27 01:35:03;;;;;;;26.30;24.75;;;;;;;;;;5075064;28;20366;-71
2023/07/27 01:37:30;;;;;;;31.77;30.10;;;;;;;;;;5075868;28;20115;-71
2023/07/27 01:39:58;;;;;;;35.03;33.15;;;;;;;;;;5072242;28;20519;-70
2023/07/27 01:42:24;;;;;;;38.17;36.05;;;;;;;;;;5074460;28;20163;-69
2023/07/27 01:44:51;;;;;;;36.85;34.92;;;;;;;;;;5076644;28;20349;-71
2023/07/27 01:47:17;;;;;;;35.42;33.55;;;;;;;;;;5078348;28;20028;-69
2023/07/27 01:49:45;;;;;;;38.47;36.50;;;;;;;;;;5073208;28;20105;-65
2023/07/27 01:52:14;;;;;;;30.77;29.15;;;;;;;;;;5080920;28;20465;-67
2023/07/27 01:54:45;;;;;;;39.78;37.70;;;;;;;;;;5074255;28;20399;-69
2023/07/27 01:57:11;;;;;;;33.80;32.05;;;;;;;;;;5086059;28;20067;-65
2023/07/27 01:59:38;;;;;;;35.22;33.38;;;;;;;;;;5079797;28;20255;-69
2023/07/27 02:02:05;;;;;;;34.05;32.28;;;;;;;;;;5060195;28;20033;-65
2023/07/27 02:04:31;;;;;;;35.72;33.70;;;;;;;;;;5074723;28;20040;-65
2023/07/27 02:06:56;;;;;;;36.05;34.10;;;;;;;;;;5075717;28;20424;-71
2023/07/27 02:09:21;;;;;;;33.13;31.30;;;;;;;;;;5077767;28;20064;-69
2023/07/27 02:11:53;;;;;;;34.45;32.63;;;;;;;;;;5071578;28;20497;-69
2023/07/27 02:14:27;;;;;;;44.97;42.65;;;;;;;;;;5076791;28;20063;-65
2023/07/27 02:16:56;;;;;;;40.35;38.30;;;;;;;;;;5076412;28;20043;-65
2023/07/27 02:19:28;;;;;;;34.55;32.72;;;;;;;;;;5074580;28;20059;-71
2023/07/27 02:21:55;;;;;;;28.63;27.10;;;;;;;;;;5076372;28;20025;-65
2023/07/27 02:24:21;;;;;;;31.73;29.88;;;;;;;;;;5077909;28;20040;-65
2023/07/27 02:26:47;;;;;;;33.25;30.92;;;;;;;;;;5074031;28;20040;-65
2023/07/27 02:29:12;;;;;;;30.27;28.63;;;;;;;;;;5073477;28;20582;-70
2023/07/27 02:31:37;;;;;;;33.05;31.33;;;;;;;;;;5077420;28;20047;-65
2023/07/27 02:34:03;;;;;;;27.00;25.55;;;;;;;;;;5078759;28;20023;-65
2023/07/27 02:36:28;;;;;;;31.67;30.02;;;;;;;;;;5076057;28;20466;-65
2023/07/27 02:38:53;;;;;;;35.55;33.65;;;;;;;;;;5076457;28;20491;-64
2023/07/27 02:41:19;;;;;;;28.38;26.80;;;;;;;;;;5077697;28;20514;-65
2023/07/27 02:43:44;;;;;;;24.45;23.00;;;;;;;;;;5075271;28;20024;-70
2023/07/27 02:46:09;;;;;;;24.42;23.08;;;;;;;;;;5076096;28;20032;-65
2023/07/27 02:48:35;;;;;;;25.50;24.15;;;;;;;;;;5075892;28;20516;-71
2023/07/27 02:51:01;;;;;;;21.92;20.70;;;;;;;;;;5076663;28;20365;-71
2023/07/27 02:53:26;;;;;;;26.33;24.92;;;;;;;;;;5076128;28;20326;-69
2023/07/27 02:56:00;;;;;;;27.55;26.10;;;;;;;;;;5076669;28;20428;-70
2023/07/27 02:58:26;;;;;;;27.85;26.38;;;;;;;;;;5073129;28;20032;-65
2023/07/27 03:00:56;;;;;;;28.20;26.75;;;;;;;;;;5075812;28;20043;-65
2023/07/27 03:03:22;;;;;;;22.15;20.92;;;;;;;;;;5072468;28;20107;-65
2023/07/27 03:05:47;;;;;;;25.35;24.00;;;;;;;;;;5076748;28;20066;-70
2023/07/27 03:08:12;;;;;;;23.85;22.58;;;;;;;;;;5074009;28;20044;-70
2023/07/27 03:10:39;;;;;;;23.73;22.48;;;;;;;;;;5080368;28;20051;-65
2023/07/27 03:13:04;;;;;;;24.65;23.30;;;;;;;;;;5076127;28;20545;-65
2023/07/27 03:15:30;;;;;;;27.35;25.83;;;;;;;;;;5078450;28;20036;-65
2023/07/27 03:17:55;;;;;;;26.90;25.42;;;;;;;;;;5074304;28;20027;-65
2023/07/27 03:20:20;;;;;;;28.05;26.55;;;;;;;;;;5070639;28;20465;-65
2023/07/27 03:22:46;;;;;;;18.77;17.75;;;;;;;;;;5076322;28;20025;-65
2023/07/27 03:25:11;;;;;;;21.98;20.67;;;;;;;;;;5073271;28;20036;-64
2023/07/27 03:27:36;;;;;;;20.67;19.52;;;;;;;;;;5076337;28;20108;-65
2023/07/27 03:30:03;;;;;;;22.15;20.75;;;;;;;;;;5073335;28;20047;-69
2023/07/27 03:32:28;;;;;;;24.40;23.00;;;;;;;;;;5075030;28;20085;-65
2023/07/27 03:34:54;;;;;;;28.55;27.00;;;;;;;;;;5074539;28;20040;-65
2023/07/27 03:37:19;;;;;;;28.85;27.33;;;;;;;;;;5073097;28;20264;-65
2023/07/27 03:39:44;;;;;;;25.60;24.25;;;;;;;;;;5073842;28;20115;-65
2023/07/27 03:42:10;;;;;;;28.67;27.17;;;;;;;;;;5073849;28;20177;-65
2023/07/27 03:44:35;;;;;;;21.92;20.73;;;;;;;;;;5078581;28;20044;-66
2023/07/27 03:47:00;;;;;;;20.33;19.23;;;;;;;;;;5076094;28;20043;-65
2023/07/27 03:49:26;;;;;;;16.63;15.43;;;;;;;;;;5077306;28;20176;-65
2023/07/27 03:51:51;;;;;;;21.10;19.95;;;;;;;;;;5079475;28;20028;-70
2023/07/27 03:54:16;;;;;;;19.50;18.40;;;;;;;;;;5079579;28;20469;-70
2023/07/27 03:56:42;;;;;;;23.50;22.23;;;;;;;;;;5077872;28;20651;-71
2023/07/27 03:59:07;;;;;;;25.17;23.73;;;;;;;;;;5075216;28;20718;-70
2023/07/27 04:01:33;;;;;;;33.22;31.40;;;;;;;;;;5078001;28;20092;-65
2023/07/27 04:03:58;;;;;;;31.60;29.85;;;;;;;;;;5076450;28;20114;-70
2023/07/27 04:06:23;;;;;;;33.17;31.42;;;;;;;;;;5080811;28;20170;-70
2023/07/27 04:08:49;;;;;;;44.60;42.20;;;;;;;;;;5076339;28;20039;-70
2023/07/27 04:11:14;;;;;;;41.53;39.25;;;;;;;;;;5073360;28;20032;-70
2023/07/27 04:13:39;;;;;;;43.70;41.35;;;;;;;;;;5077362;28;20036;-70
2023/07/27 04:16:05;;;;;;;36.20;34.28;;;;;;;;;;5077948;28;20031;-70
2023/07/27 04:18:30;;;;;;;40.13;38.05;;;;;;;;;;5076361;28;20036;-69
2023/07/27 04:20:56;;;;;;;34.40;32.50;;;;;;;;;;5078181;28;20157;-70
2023/07/27 04:23:21;;;;;;;28.42;26.73;;;;;;;;;;5077208;28;20052;-64
2023/07/27 04:25:47;;;;;;;44.55;42.28;;;;;;;;;;5079154;28;20345;-64
2023/07/27 04:28:12;;;;;;;29.30;27.77;;;;;;;;;;5073263;28;20036;-64
2023/07/27 04:30:37;;;;;;;31.88;30.20;;;;;;;;;;5076978;28;20111;-71
2023/07/27 04:33:03;;;;;;;32.25;30.55;;;;;;;;;;5075675;28;20032;-64
2023/07/27 04:35:28;;;;;;;31.95;30.25;;;;;;;;;;5080847;28;20035;-64
2023/07/27 04:37:53;;;;;;;24.52;23.15;;;;;;;;;;5077544;28;20047;-64
2023/07/27 04:40:19;;;;;;;38.35;36.33;;;;;;;;;;5078202;28;20032;-69
2023/07/27 04:42:44;;;;;;;30.73;28.20;;;;;;;;;;5072626;28;20029;-71
2023/07/27 04:45:10;;;;;;;32.33;30.63;;;;;;;;;;5072769;28;20043;-65
2023/07/27 04:47:36;;;;;;;31.80;30.10;;;;;;;;;;5077699;28;20041;-69
2023/07/27 04:50:02;;;;;;;39.95;37.88;;;;;;;;;;5077310;28;20342;-70
2023/07/27 04:52:28;;;;;;;34.15;32.22;;;;;;;;;;5078061;28;20029;-70
2023/07/27 04:54:53;;;;;;;33.53;31.67;;;;;;;;;;5076134;28;20038;-64
2023/07/27 04:57:18;;;;;;;36.60;34.38;;;;;;;;;;5078964;28;20052;-70
2023/07/27 04:59:44;;;;;;;39.63;37.53;;;;;;;;;;5078343;28;20098;-69
2023/07/27 05:02:09;;;;;;;30.83;29.20;;;;;;;;;;5076190;28;20077;-64
2023/07/27 05:04:34;;;;;;;41.17;39.05;;;;;;;;;;5077340;28;20032;-64
2023/07/27 05:07:00;;;;;;;38.88;36.90;;;;;;;;;;5074724;28;20051;-64
2023/07/27 05:09:25;;;;;;;42.63;40.38;;;;;;;;;;5078791;28;20419;-70
2023/07/27 05:11:51;;;;;;;42.88;40.70;;;;;;;;;;5078303;28;20028;-64
2023/07/27 05:14:16;;;;;;;42.88;40.70;;;;;;;;;;5078885;28;20473;-71
2023/07/27 05:16:41;;;;;;;28.35;26.85;;;;;;;;;;5080353;28;20114;-64
2023/07/27 05:19:07;;;;;;;44.85;42.60;;;;;;;;;;5075272;28;20032;-64
2023/07/27 05:21:32;;;;;;;53.90;51.17;;;;;;;;;;5074015;28;20505;-64
2023/07/27 05:23:58;;;;;;;69.68;66.18;;;;;;;;;;5084485;28;20257;-72
2023/07/27 05:26:23;;;;;;;50.30;47.55;;;;;;;;;;5079331;28;20116;-65
2023/07/27 05:28:48;;;;;;;50.38;47.83;;;;;;;;;;5075733;28;20449;-64
2023/07/27 05:31:14;;;;;;;50.15;47.58;;;;;;;;;;5075597;28;20063;-71
2023/07/27 05:33:39;;;;;;;45.83;43.50;;;;;;;;;;5074594;28;20028;-71
2023/07/27 05:36:04;;;;;;;49.35;46.83;;;;;;;;;;5071168;28;20035;-64
2023/07/27 05:38:30;;;;;;;48.65;46.15;;;;;;;;;;5078584;28;20126;-71
2023/07/27 05:41:02;;;;;;;35.05;33.25;;;;;;;;;;5076463;28;20042;-70
2023/07/27 05:43:27;;;;;;;32.60;30.88;;;;;;;;;;5073854;28;20041;-64
2023/07/27 05:45:53;;;;;;;31.42;29.80;;;;;;;;;;5076423;28;20040;-73
2023/07/27 05:48:18;;;;;;;33.53;31.73;;;;;;;;;;5077259;28;20042;-71
2023/07/27 05:50:43;;;;;;;35.97;34.13;;;;;;;;;;5075604;28;20111;-72
2023/07/27 05:53:09;;;;;;;68.63;65.18;;;;;;;;;;5074383;28;20382;-64
2023/07/27 05:55:34;;;;;;;40.63;38.55;;;;;;;;;;5076653;28;20518;-71
2023/07/27 05:57:59;;;;;;;54.92;52.13;;;;;;;;;;5075474;28;20025;-64
2023/07/27 06:00:26;;;;;;;47.53;43.35;;;;;;;;;;5078405;28;20586;-71
2023/07/27 06:02:51;;;;;;;54.33;51.53;;;;;;;;;;5078665;28;20032;-71
2023/07/27 06:05:16;;;;;;;51.60;48.97;;;;;;;;;;5077149;28;20050;-63
2023/07/27 06:07:42;;;;;;;53.90;51.15;;;;;;;;;;5077693;28;20072;-72
2023/07/27 06:10:08;;;;;;;37.75;35.80;;;;;;;;;;5073133;28;20150;-64
2023/07/27 06:12:34;;;;;;;56.55;53.67;;;;;;;;;;5077141;28;20028;-65
2023/07/27 06:14:59;;;;;;;45.50;43.17;;;;;;;;;;5077571;28;20024;-72
2023/07/27 06:17:27;;;;;;;41.78;39.63;;;;;;;;;;5075798;28;20035;-65
2023/07/27 06:19:52;;;;;;;39.55;37.45;;;;;;;;;;5074366;28;20055;-73
2023/07/27 06:22:18;;;;;;;40.75;38.65;;;;;;;;;;5074093;28;20358;-74
2023/07/27 06:24:44;;;;;;;57.35;54.47;;;;;;;;;;5077442;28;20039;-73
2023/07/27 06:27:09;;;;;;;37.00;35.10;;;;;;;;;;5072297;28;20028;-72
2023/07/27 06:29:35;;;;;;;69.13;65.68;;;;;;;;;;5076716;28;20388;-65
2023/07/27 06:32:00;;;;;;;63.38;60.15;;;;;;;;;;5078512;28;20028;-66
2023/07/27 06:34:26;;;;;;;52.38;49.42;;;;;;;;;;5071593;28;20469;-65
2023/07/27 06:36:51;;;;;;;75.97;72.15;;;;;;;;;;5073534;28;20032;-73
2023/07/27 06:39:17;;;;;;;49.70;47.15;;;;;;;;;;5074925;28;20032;-66
2023/07/27 06:41:43;;;;;;;67.82;64.43;;;;;;;;;;5076709;28;20107;-66
2023/07/27 06:44:09;;;;;;;74.20;70.43;;;;;;;;;;5072832;28;20040;-66
2023/07/27 06:46:35;;;;;;;76.78;72.88;;;;;;;;;;5074986;28;20036;-74
2023/07/27 06:49:00;;;;;;;51.20;48.63;;;;;;;;;;5072667;28;20032;-74
2023/07/27 06:51:25;;;;;;;62.70;59.55;;;;;;;;;;5069741;28;20028;-74
2023/07/27 06:53:51;;;;;;;34.28;32.50;;;;;;;;;;5077690;28;20024;-69
2023/07/27 06:56:19;;;;;;;55.92;53.05;;;;;;;;;;5073196;28;20067;-71
2023/07/27 06:58:44;;;;;;;61.30;58.20;;;;;;;;;;5068195;28;20036;-72
2023/07/27 07:01:13;;;;;;;67.95;64.55;;;;;;;;;;5074601;28;20043;-73
2023/07/27 07:03:38;;;;;;;56.20;53.20;;;;;;;;;;5072747;28;20097;-72
2023/07/27 07:06:04;;;;;;;69.60;66.10;;;;;;;;;;5075119;28;20028;-71
2023/07/27 07:08:29;;;;;;;82.25;78.15;;;;;;;;;;5073638;28;20027;-70
2023/07/27 07:10:55;;;;;;;70.40;66.85;;;;;;;;;;5075539;28;20024;-72
2023/07/27 07:13:21;;;;;;;68.70;65.25;;;;;;;;;;5070465;28;20023;-72
2023/07/27 07:15:48;;;;;;;91.78;87.00;;;;;;;;;;5071921;28;20405;-70
2023/07/27 07:18:14;;;;;;;118.22;112.22;;;;;;;;;;5070400;28;20031;-73
2023/07/27 07:20:42;;;;;;;128.70;122.28;;;;;;;;;;5071784;28;20247;-70
2023/07/27 07:23:07;;;;;;;149.38;141.88;;;;;;;;;;5076627;28;20024;-70
2023/07/27 07:25:32;;;;;;;156.80;148.77;;;;;;;;;;5070879;28;20047;-73
2023/07/27 07:27:58;;;;;;;124.00;117.75;;;;;;;;;;5074464;28;20032;-71
2023/07/27 07:30:23;;;;;;;138.68;131.73;;;;;;;;;;5060483;28;20540;-70
2023/07/27 07:32:50;;;;;;;155.27;147.43;;;;;;;;;;5072977;28;20025;-70
2023/07/27 07:35:15;;;;;;;104.38;99.03;;;;;;;;;;5074495;28;20362;-70
2023/07/27 07:37:41;;;;;;;105.80;100.45;;;;;;;;;;5075864;28;20046;-71
2023/07/27 07:40:07;;;;;;;143.43;135.90;;;;;;;;;;5073250;28;20118;-70
2023/07/27 07:42:32;;;;;;;156.80;148.77;;;;;;;;;;5074716;28;20544;-74
2023/07/27 07:44:57;;;;;;;151.35;143.57;;;;;;;;;;5078513;28;20036;-73
2023/07/27 07:47:23;;;;;;;159.75;151.60;;;;;;;;;;5076580;28;20059;-71
2023/07/27 07:49:48;;;;;;;154.30;146.43;;;;;;;;;;5075183;28;20028;-69
2023/07/27 07:52:14;;;;;;;158.43;150.35;;;;;;;;;;5073046;28;20028;-69
2023/07/27 07:54:39;;;;;;;143.02;135.75;;;;;;;;;;5071617;28;20106;-72
2023/07/27 07:57:04;;;;;;;122.65;116.30;;;;;;;;;;5074745;28;20029;-70
2023/07/27 07:59:30;;;;;;;122.40;116.10;;;;;;;;;;5072388;28;20983;-72
2023/07/27 08:01:56;;;;;;;131.63;124.80;;;;;;;;;;5077011;28;20028;-72
2023/07/27 08:04:21;;;;;;;135.40;128.43;;;;;;;;;;5069926;28;20044;-72
2023/07/27 08:06:47;;;;;;;117.95;111.88;;;;;;;;;;5075651;28;20059;-71
2023/07/27 08:09:12;;;;;;;129.07;122.43;;;;;;;;;;5081806;28;20045;-71
2023/07/27 08:11:41;;;;;;;130.90;124.07;;;;;;;;;;5073555;28;20039;-70
2023/07/27 08:14:07;;;;;;;148.23;140.55;;;;;;;;;;5071875;28;20032;-70
2023/07/27 08:16:33;;;;;;;130.40;123.65;;;;;;;;;;5073012;28;20125;-67
2023/07/27 08:18:58;;;;;;;99.80;94.63;;;;;;;;;;5073745;28;20043;-68
2023/07/27 08:21:23;;;;;;;116.55;110.53;;;;;;;;;;5074494;28;20028;-72
2023/07/27 08:23:50;;;;;;;90.85;86.10;;;;;;;;;;5075076;28;20519;-71
2023/07/27 08:26:16;;;;;;;118.45;112.40;;;;;;;;;;5072135;28;20028;-72
2023/07/27 08:28:41;;;;;;;121.93;115.50;;;;;;;;;;5075562;28;20093;-72
2023/07/27 08:31:07;;;;;;;96.53;91.50;;;;;;;;;;5076440;28;20132;-69
2023/07/27 08:33:33;;;;;;;124.32;117.93;;;;;;;;;;5082365;28;20026;-72
2023/07/27 08:36:02;;;;;;;141.70;134.40;;;;;;;;;;5078594;28;20027;-71
2023/07/27 08:38:27;;;;;;;177.73;168.48;;;;;;;;;;5074437;28;20035;-73
2023/07/27 08:40:57;;;;;;;83.15;78.80;;;;;;;;;;5078439;28;20032;-71
2023/07/27 08:43:23;;;;;;;154.48;146.30;;;;;;;;;;5082547;28;20084;-70
2023/07/27 08:45:48;;;;;;;138.43;131.20;;;;;;;;;;5079891;28;20040;-69
2023/07/27 08:48:15;;;;;;;125.72;119.15;;;;;;;;;;5078741;28;20482;-74
2023/07/27 08:50:42;;;;;;;129.43;122.28;;;;;;;;;;5076766;28;20482;-71
2023/07/27 08:53:08;;;;;;;101.32;96.00;;;;;;;;;;5077942;28;20036;-71
2023/07/27 08:55:33;;;;;;;166.40;157.55;;;;;;;;;;5076809;28;20165;-72
2023/07/27 08:57:59;;;;;;;158.20;149.95;;;;;;;;;;5076289;28;20469;-71
2023/07/27 09:00:24;;;;;;;129.70;122.95;;;;;;;;;;5078502;28;20044;-71
2023/07/27 09:02:49;;;;;;;140.88;133.57;;;;;;;;;;5076347;28;20048;-70
2023/07/27 09:05:15;;;;;;;110.13;104.28;;;;;;;;;;5077951;28;20040;-80
2023/07/27 09:07:40;;;;;;;125.00;118.50;;;;;;;;;;5079831;28;20358;-80
2023/07/27 09:10:10;;;;;;;147.02;139.27;;;;;;;;;;5079816;28;20032;-82
2023/07/27 09:12:36;;;;;;;148.47;140.70;;;;;;;;;;5078564;28;20112;-75
2023/07/27 09:15:12;;;;;;;118.28;112.00;;;;;;;;;;5075920;28;20125;-76
2023/07/27 09:17:38;;;;;;;122.47;115.82;;;;;;;;;;5077813;28;20032;-73
2023/07/27 09:20:12;;;;;;;134.15;127.07;;;;;;;;;;5079119;28;20036;-75
2023/07/27 09:22:37;;;;;;;110.40;104.68;;;;;;;;;;5079852;28;20039;-73
2023/07/27 09:25:05;;;;;;;129.73;122.95;;;;;;;;;;5080993;28;20720;-75
2023/07/27 09:27:40;;;;;;;141.73;134.35;;;;;;;;;;5076759;28;20024;-75
2023/07/27 09:30:06;;;;;;;134.07;126.90;;;;;;;;;;5085660;28;20035;-72
2023/07/27 09:32:35;;;;;;;134.32;127.25;;;;;;;;;;5080646;28;21120;-76
2023/07/27 09:35:01;;;;;;;143.25;135.80;;;;;;;;;;5077177;28;20089;-74
2023/07/27 09:37:28;;;;;;;125.10;118.60;;;;;;;;;;5076581;28;20666;-74
2023/07/27 09:40:09;;;;;;;107.22;101.65;;;;;;;;;;5069989;28;20489;-73
2023/07/27 09:42:34;;;;;;;143.20;135.75;;;;;;;;;;5076322;28;20036;-74
2023/07/27 09:44:59;;;;;;;113.57;107.75;;;;;;;;;;5077184;28;20046;-75
2023/07/27 09:47:30;;;;;;;140.32;133.05;;;;;;;;;;5077694;28;20028;-74
2023/07/27 09:49:58;;;;;;;151.05;143.32;;;;;;;;;;5073371;28;20034;-75
2023/07/27 09:52:24;;;;;;;158.38;150.23;;;;;;;;;;5075069;28;20059;-71
2023/07/27 09:54:52;;;;;;;145.50;137.98;;;;;;;;;;5073625;28;20112;-72
2023/07/27 09:57:17;;;;;;;106.38;100.97;;;;;;;;;;5077395;28;20365;-71
2023/07/27 09:59:44;;;;;;;111.45;105.78;;;;;;;;;;5076355;28;20028;-71
2023/07/27 10:02:09;;;;;;;145.75;138.30;;;;;;;;;;5077378;28;20035;-72
2023/07/27 10:04:35;;;;;;;134.00;127.13;;;;;;;;;;5066752;28;20089;-76
2023/07/27 10:07:01;;;;;;;160.45;151.43;;;;;;;;;;5076513;28;20074;-73
2023/07/27 10:09:26;;;;;;;141.00;133.73;;;;;;;;;;5075171;28;20094;-71
2023/07/27 10:11:57;;;;;;;171.02;162.27;;;;;;;;;;5080250;28;20444;-76
2023/07/27 10:14:26;;;;;;;153.20;145.30;;;;;;;;;;5080482;28;20031;-70
2023/07/27 10:17:02;;;;;;;134.73;127.90;;;;;;;;;;5057560;28;20051;-71
2023/07/27 10:19:56;;;;;;;72.38;68.70;;;;;;;;;;5078856;28;20377;-72
2023/07/27 10:22:22;;;;;;;126.10;119.68;;;;;;;;;;5077703;28;20064;-69
2023/07/27 10:24:52;;;;;;;136.73;129.82;;;;;;;;;;5086972;28;20063;-70
2023/07/27 10:27:21;;;;;;;121.45;115.30;;;;;;;;;;5078046;28;20370;-72
2023/07/27 10:30:11;;;;;;;120.18;114.10;;;;;;;;;;5074901;28;20035;-70
2023/07/27 10:32:37;;;;;;;104.60;99.35;;;;;;;;;;5076028;28;20041;-74
2023/07/27 10:35:08;;;;;;;166.05;157.50;;;;;;;;;;5073943;28;20089;-72
2023/07/27 10:37:53;;;;;;;183.95;173.88;;;;;;;;;;5076598;28;20135;-72
2023/07/27 10:40:26;;;;;;;136.32;129.45;;;;;;;;;;5074915;28;20036;-71
2023/07/27 10:42:56;;;;;;;95.03;90.07;;;;;;;;;;5074236;28;20032;-71
2023/07/27 10:45:26;;;;;;;117.25;111.30;;;;;;;;;;5073992;28;20900;-74
2023/07/27 10:47:55;;;;;;;93.10;88.40;;;;;;;;;;5075547;28;20482;-73
2023/07/27 10:50:21;;;;;;;129.43;122.82;;;;;;;;;;5075827;28;20036;-73
2023/07/27 10:52:51;;;;;;;156.70;148.73;;;;;;;;;;5073743;28;20342;-76
2023/07/27 10:55:16;;;;;;;160.60;152.47;;;;;;;;;;5076690;28;20075;-74
2023/07/27 10:57:42;;;;;;;110.50;104.90;;;;;;;;;;5075180;28;20060;-73
2023/07/27 11:00:09;;;;;;;124.25;117.95;;;;;;;;;;5078227;28;20040;-76
2023/07/27 11:02:36;;;;;;;141.68;134.50;;;;;;;;;;5075114;28;20165;-75
2023/07/27 11:05:07;;;;;;;109.95;104.40;;;;;;;;;;5073480;28;20119;-75
2023/07/27 11:07:34;;;;;;;94.05;89.30;;;;;;;;;;5073069;28;20037;-76
2023/07/27 11:10:12;;;;;;;129.15;122.60;;;;;;;;;;5076073;28;20431;-77
2023/07/27 11:12:46;;;;;;;137.98;131.00;;;;;;;;;;5077057;28;20043;-75
2023/07/27 11:15:20;;;;;;;150.15;142.57;;;;;;;;;;5071679;28;20029;-75
2023/07/27 11:17:47;;;;;;;98.53;93.57;;;;;;;;;;5059942;28;20123;-76
2023/07/27 11:20:12;;;;;;;105.55;100.25;;;;;;;;;;5075971;28;20115;-81
2023/07/27 11:22:38;;;;;;;166.60;158.25;;;;;;;;;;5075916;28;20115;-80
2023/07/27 11:25:07;;;;;;;108.75;103.15;;;;;;;;;;5076548;28;20721;-79
2023/07/27 11:27:32;;;;;;;119.10;113.10;;;;;;;;;;5073934;28;20124;-82
2023/07/27 11:30:01;;;;;;;138.70;131.80;;;;;;;;;;5076180;28;20117;-73
2023/07/27 11:32:26;;;;;;;132.32;125.72;;;;;;;;;;5074930;28;20024;-72
2023/07/27 11:34:55;;;;;;;124.78;118.45;;;;;;;;;;5076038;28;20408;-71
2023/07/27 11:37:24;;;;;;;110.90;105.38;;;;;;;;;;5077046;28;20075;-71
2023/07/27 11:39:50;;;;;;;130.25;123.72;;;;;;;;;;5074663;28;20059;-71
2023/07/27 11:42:28;;;;;;;120.05;113.72;;;;;;;;;;5071979;28;20067;-70
2023/07/27 11:44:56;;;;;;;113.55;107.82;;;;;;;;;;5071950;28;20036;-69
2023/07/27 11:47:22;;;;;;;157.07;149.18;;;;;;;;;;5076491;28;20117;-69
2023/07/27 11:49:53;;;;;;;184.90;175.60;;;;;;;;;;5075604;28;20025;-69
2023/07/27 11:52:20;;;;;;;135.07;128.30;;;;;;;;;;5070145;28;20071;-69
2023/07/27 11:54:50;;;;;;;158.45;150.45;;;;;;;;;;5074078;28;20175;-70
2023/07/27 11:57:15;;;;;;;123.40;117.25;;;;;;;;;;5077664;28;20060;-70
2023/07/27 11:59:40;;;;;;;140.40;133.35;;;;;;;;;;5076781;28;20074;-69
2023/07/27 12:02:06;;;;;;;120.30;114.25;;;;;;;;;;5075841;28;20474;-71
2023/07/27 12:04:31;;;;;;;136.48;129.65;;;;;;;;;;5077418;28;20307;-71
2023/07/27 12:06:57;;;;;;;173.40;164.25;;;;;;;;;;5077403;28;20043;-73
2023/07/27 12:09:22;;;;;;;118.15;112.25;;;;;;;;;;5074948;28;20101;-72
2023/07/27 12:11:48;;;;;;;157.30;149.43;;;;;;;;;;5075163;28;20590;-82
2023/07/27 12:14:13;;;;;;;174.32;164.80;;;;;;;;;;5079566;28;20040;-82
2023/07/27 12:16:40;;;;;;;147.30;139.90;;;;;;;;;;5082042;28;20038;-72
2023/07/27 12:19:08;;;;;;;149.63;142.00;;;;;;;;;;5077634;28;20040;-77
2023/07/27 12:21:35;;;;;;;122.57;116.40;;;;;;;;;;5076193;28;20485;-80
2023/07/27 12:24:02;;;;;;;129.05;122.57;;;;;;;;;;5078103;28;20080;-77
2023/07/27 12:26:27;;;;;;;134.95;128.23;;;;;;;;;;5079558;28;20039;-69
2023/07/27 12:28:52;;;;;;;145.55;138.25;;;;;;;;;;5077113;28;20025;-71
2023/07/27 12:31:18;;;;;;;142.63;135.48;;;;;;;;;;5076024;28;20032;-70
2023/07/27 12:33:43;;;;;;;128.32;121.93;;;;;;;;;;5077599;28;20323;-79
2023/07/27 12:36:09;;;;;;;138.25;131.35;;;;;;;;;;5080088;28;20028;-72
2023/07/27 12:38:35;;;;;;;135.60;128.85;;;;;;;;;;5078785;28;20081;-72
2023/07/27 12:41:01;;;;;;;110.25;104.68;;;;;;;;;;5076826;28;20040;-74
2023/07/27 12:43:26;;;;;;;116.28;110.43;;;;;;;;;;5076741;28;20032;-72
2023/07/27 12:45:52;;;;;;;109.85;104.30;;;;;;;;;;5081313;28;20023;-73
2023/07/27 12:48:17;;;;;;;122.95;116.68;;;;;;;;;;5079594;28;20070;-73
2023/07/27 12:50:42;;;;;;;96.50;91.70;;;;;;;;;;5075887;28;20101;-73
2023/07/27 12:53:08;;;;;;;107.15;101.80;;;;;;;;;;5077943;28;20799;-76
2023/07/27 12:55:39;;;;;;;120.97;114.90;;;;;;;;;;5084776;28;20109;-74
2023/07/27 12:58:04;;;;;;;132.52;125.43;;;;;;;;;;5077038;28;20071;-73
2023/07/27 13:00:30;;;;;;;93.65;88.95;;;;;;;;;;5072760;28;20055;-72
2023/07/27 13:02:56;;;;;;;120.22;114.25;;;;;;;;;;5077971;28;20067;-73
2023/07/27 13:05:21;;;;;;;128.68;122.22;;;;;;;;;;5075819;28;20131;-73
2023/07/27 13:07:47;;;;;;;147.05;139.73;;;;;;;;;;5076081;28;20353;-72
2023/07/27 13:10:14;;;;;;;139.98;133.00;;;;;;;;;;5076721;28;20458;-74
2023/07/27 13:12:39;;;;;;;146.65;139.25;;;;;;;;;;5078361;28;20031;-72
2023/07/27 13:15:05;;;;;;;122.88;116.78;;;;;;;;;;5078722;28;20040;-75
2023/07/27 13:17:31;;;;;;;158.98;151.05;;;;;;;;;;5078213;28;20071;-73
2023/07/27 13:19:57;;;;;;;140.93;133.93;;;;;;;;;;5075546;28;20474;-72
2023/07/27 13:22:23;;;;;;;125.72;119.43;;;;;;;;;;5081267;28;20032;-72
2023/07/27 13:24:49;;;;;;;153.55;145.82;;;;;;;;;;5074215;28;20032;-70
2023/07/27 13:27:14;;;;;;;135.10;128.00;;;;;;;;;;5076611;28;20054;-75
2023/07/27 13:29:39;;;;;;;69.70;66.22;;;;;;;;;;5072362;28;20429;-77
2023/07/27 13:32:05;;;;;;;165.25;157.00;;;;;;;;;;5075377;28;20028;-81
2023/07/27 13:34:30;;;;;;;150.63;142.77;;;;;;;;;;5073531;28;20032;-74
2023/07/27 13:36:56;;;;;;;124.10;117.93;;;;;;;;;;5078780;28;20024;-72
2023/07/27 13:39:21;;;;;;;91.35;86.78;;;;;;;;;;5083000;28;20028;-74
2023/07/27 13:41:47;;;;;;;131.65;125.10;;;;;;;;;;5073735;28;20040;-73
2023/07/27 13:44:12;;;;;;;108.72;103.18;;;;;;;;;;5077319;28;20094;-75
2023/07/27 13:46:38;;;;;;;111.43;105.80;;;;;;;;;;5075251;28;20093;-73
2023/07/27 13:49:03;;;;;;;112.57;106.93;;;;;;;;;;5073811;28;20101;-73
2023/07/27 13:51:29;;;;;;;100.90;95.88;;;;;;;;;;5071921;28;20119;-74
2023/07/27 13:53:55;;;;;;;104.05;98.78;;;;;;;;;;5074562;28;20042;-73
2023/07/27 13:56:21;;;;;;;98.72;93.75;;;;;;;;;;5074399;28;20516;-77
2023/07/27 13:58:46;;;;;;;91.82;87.20;;;;;;;;;;5078531;28;20024;-77
2023/07/27 14:01:11;;;;;;;98.28;93.13;;;;;;;;;;5074401;28;20042;-84
2023/07/27 14:03:37;;;;;;;72.28;68.60;;;;;;;;;;5073073;28;20518;-78
2023/07/27 14:06:02;;;;;;;74.10;70.32;;;;;;;;;;5075249;28;20110;-73